createdAt,value
2018-07-22T00:01:09.042Z,21.80
2018-07-22T00:03:37.197Z,19.10
2018-07-22T00:06:05.394Z,23.40
2018-07-22T00:08:33.542Z,19.70
2018-07-22T00:11:01.699Z,21.57
2018-07-22T00:13:29.834Z,18.93
2018-07-22T00:15:57.974Z,17.63
2018-07-22T00:18:26.134Z,19.73
2018-07-22T00:20:54.274Z,18.27
2018-07-22T00:23:22.430Z,19.83
2018-07-22T00:25:50.574Z,18.90
2018-07-22T00:28:18.731Z,20.10
2018-07-22T00:30:46.872Z,21.40
2018-07-22T00:33:15.028Z,23.80
2018-07-22T00:35:43.169Z,19.50
2018-07-22T00:38:11.099Z,20.50
2018-07-22T00:40:39.233Z,19.33
2018-07-22T00:43:07.427Z,19.00
2018-07-22T00:45:35.588Z,17.30
2018-07-22T00:48:03.754Z,23.90
2018-07-22T00:50:31.894Z,20.77
2018-07-22T00:53:00.058Z,18.37
2018-07-22T00:55:28.218Z,23.20
2018-07-22T00:57:56.370Z,19.07
2018-07-22T01:00:24.514Z,23.70
2018-07-22T01:02:52.706Z,21.07
2018-07-22T01:05:20.852Z,20.40
2018-07-22T01:07:48.990Z,20.53
2018-07-22T01:10:17.137Z,18.57
2018-07-22T01:12:45.258Z,21.77
2018-07-22T01:15:13.404Z,21.13
2018-07-22T01:17:41.530Z,20.00
2018-07-22T01:20:10.277Z,19.10
2018-07-22T01:22:38.749Z,27.27
2018-07-22T01:25:06.935Z,19.17
2018-07-22T01:27:35.046Z,22.93
2018-07-22T01:30:03.222Z,21.10
2018-07-22T01:32:31.378Z,18.40
2018-07-22T01:34:59.513Z,19.83
2018-07-22T01:37:27.637Z,19.83
2018-07-22T01:39:55.823Z,19.70
2018-07-22T01:42:24.970Z,18.40
2018-07-22T01:44:53.101Z,21.93
2018-07-22T01:47:21.230Z,19.90
2018-07-22T01:49:49.380Z,19.90
2018-07-22T01:52:17.640Z,20.73
2018-07-22T01:54:45.765Z,20.53
2018-07-22T01:57:13.898Z,21.60
2018-07-22T01:59:42.034Z,22.27
2018-07-22T02:02:10.130Z,20.90
2018-07-22T02:04:38.265Z,22.40
2018-07-22T02:07:06.402Z,22.20
2018-07-22T02:09:34.540Z,23.73
2018-07-22T02:12:02.671Z,21.93
2018-07-22T02:14:30.808Z,23.30
2018-07-22T02:16:59.030Z,28.93
2018-07-22T02:19:27.179Z,21.57
2018-07-22T02:21:55.298Z,25.00
2018-07-22T02:24:23.422Z,22.27
2018-07-22T02:26:51.551Z,21.40
2018-07-22T02:29:19.687Z,24.93
2018-07-22T02:31:47.822Z,21.67
2018-07-22T02:34:15.962Z,23.57
2018-07-22T02:36:44.098Z,20.17
2018-07-22T02:39:13.098Z,22.97
2018-07-22T02:41:41.468Z,23.97
2018-07-22T02:44:09.850Z,22.93
2018-07-22T02:46:37.941Z,20.57
2018-07-22T02:49:06.311Z,22.47
2018-07-22T02:51:34.287Z,24.70
2018-07-22T02:54:02.428Z,21.13
2018-07-22T02:56:30.554Z,21.10
2018-07-22T02:59:03.134Z,22.03
2018-07-22T03:01:32.171Z,21.93
2018-07-22T03:04:00.374Z,21.47
2018-07-22T03:06:28.526Z,24.60
2018-07-22T03:08:56.714Z,25.33
2018-07-22T03:11:24.875Z,22.80
2018-07-22T03:13:53.028Z,23.53
2018-07-22T03:16:21.170Z,22.70
2018-07-22T03:18:49.324Z,23.00
2018-07-22T03:21:17.470Z,23.77
2018-07-22T03:23:45.619Z,24.37
2018-07-22T03:26:13.791Z,25.87
2018-07-22T03:28:41.710Z,25.83
2018-07-22T03:31:09.936Z,22.97
2018-07-22T03:33:38.065Z,29.43
2018-07-22T03:36:07.254Z,24.87
2018-07-22T03:38:35.415Z,27.13
2018-07-22T03:41:03.616Z,23.97
2018-07-22T03:43:31.790Z,25.00
2018-07-22T03:45:59.958Z,20.70
2018-07-22T03:48:28.107Z,29.50
2018-07-22T03:50:56.040Z,33.13
2018-07-22T03:53:24.161Z,25.20
2018-07-22T03:55:52.322Z,26.37
2018-07-22T03:58:20.469Z,26.50
2018-07-22T04:00:48.615Z,26.23
2018-07-22T04:03:16.750Z,27.17
2018-07-22T04:05:44.898Z,26.50
2018-07-22T04:08:13.018Z,25.80
2018-07-22T04:10:41.154Z,25.53
2018-07-22T04:13:09.288Z,27.73
2018-07-22T04:15:37.648Z,25.27
2018-07-22T04:18:05.866Z,22.20
2018-07-22T04:20:34.014Z,33.17
2018-07-22T04:23:02.155Z,25.40
2018-07-22T04:25:30.290Z,20.00
2018-07-22T04:27:58.502Z,27.47
2018-07-22T04:30:26.682Z,30.97
2018-07-22T04:32:54.826Z,24.87
2018-07-22T04:35:22.967Z,23.70
2018-07-22T04:37:51.263Z,24.07
2018-07-22T04:40:19.394Z,23.43
2018-07-22T04:42:47.527Z,23.80
2018-07-22T04:45:15.666Z,24.87
2018-07-22T04:47:43.794Z,24.73
2018-07-22T04:50:11.926Z,28.70
2018-07-22T04:52:40.066Z,22.13
2018-07-22T04:55:08.222Z,23.17
2018-07-22T04:57:36.350Z,26.23
2018-07-22T05:00:05.550Z,24.43
2018-07-22T05:02:33.713Z,27.03
2018-07-22T05:05:01.854Z,24.63
2018-07-22T05:07:29.988Z,24.37
2018-07-22T05:09:58.106Z,25.40
2018-07-22T05:12:26.238Z,27.33
2018-07-22T05:14:54.370Z,26.53
2018-07-22T05:17:22.485Z,25.17
2018-07-22T05:19:50.611Z,30.17
2018-07-22T05:22:18.745Z,23.97
2018-07-22T05:24:46.899Z,23.30
2018-07-22T05:27:15.146Z,22.10
2018-07-22T05:29:43.257Z,25.83
2018-07-22T05:32:11.418Z,24.87
2018-07-22T05:34:39.569Z,22.63
2018-07-22T05:37:07.732Z,23.03
2018-07-22T05:39:35.861Z,18.03
2018-07-22T05:42:04.023Z,22.53
2018-07-22T05:44:32.170Z,24.13
2018-07-22T05:47:00.346Z,26.17
2018-07-22T05:49:28.490Z,20.60
2018-07-22T05:51:56.658Z,23.30
2018-07-22T05:54:24.800Z,20.97
2018-07-22T05:56:52.955Z,21.00
2018-07-22T05:59:21.290Z,16.27
2018-07-22T06:01:49.450Z,22.87
2018-07-22T06:04:17.616Z,20.37
2018-07-22T06:06:45.825Z,17.70
2018-07-22T06:09:13.966Z,17.30
2018-07-22T06:11:42.163Z,15.43
2018-07-22T06:14:10.274Z,24.13
2018-07-22T06:16:38.493Z,19.13
2018-07-22T06:19:06.602Z,19.40
2018-07-22T06:21:34.766Z,19.93
2018-07-22T06:24:03.039Z,17.80
2018-07-22T06:26:31.204Z,21.10
2018-07-22T06:28:59.341Z,18.67
2018-07-22T06:31:27.566Z,16.03
2018-07-22T06:33:55.711Z,18.53
2018-07-22T06:36:23.641Z,18.37
2018-07-22T06:38:51.790Z,18.73
2018-07-22T06:41:19.983Z,17.73
2018-07-22T06:43:48.145Z,19.90
2018-07-22T06:46:16.338Z,20.67
2018-07-22T06:48:44.482Z,17.90
2018-07-22T06:51:12.648Z,20.20
2018-07-22T06:53:40.895Z,24.43
2018-07-22T06:56:08.737Z,17.67
2018-07-22T06:58:36.890Z,18.60
2018-07-22T07:01:05.036Z,18.40
2018-07-22T07:03:33.194Z,18.70
2018-07-22T07:06:01.342Z,16.10
2018-07-22T07:08:29.526Z,16.07
2018-07-22T07:10:57.684Z,16.73
2018-07-22T07:13:25.814Z,10.60
2018-07-22T07:15:53.950Z,13.77
2018-07-22T07:18:22.162Z,18.57
2018-07-22T07:20:50.377Z,12.50
2018-07-22T07:23:18.454Z,9.03
2018-07-22T07:25:46.390Z,17.07
2018-07-22T07:28:14.553Z,14.33
2018-07-22T07:30:42.699Z,12.90
2018-07-22T07:33:10.875Z,17.50
2018-07-22T07:35:39.006Z,15.10
2018-07-22T07:38:07.163Z,16.50
2018-07-22T07:40:35.302Z,10.33
2018-07-22T07:43:03.446Z,10.40
2018-07-22T07:45:31.582Z,8.73
2018-07-22T07:47:59.734Z,13.90
2018-07-22T07:50:27.861Z,10.90
2018-07-22T07:52:56.012Z,7.07
2018-07-22T07:55:24.437Z,12.70
2018-07-22T07:57:52.610Z,7.23
2018-07-22T08:00:20.756Z,6.90
2018-07-22T08:02:48.910Z,6.80
2018-07-22T08:05:17.087Z,7.13
2018-07-22T08:07:45.239Z,7.30
2018-07-22T08:10:13.373Z,9.27
2018-07-22T08:12:41.525Z,6.40
2018-07-22T08:15:09.677Z,9.87
2018-07-22T08:17:37.823Z,10.97
2018-07-22T08:20:06.248Z,6.23
2018-07-22T08:22:34.390Z,9.53
2018-07-22T08:25:02.558Z,8.13
2018-07-22T08:27:30.687Z,8.50
2018-07-22T08:29:58.838Z,10.00
2018-07-22T08:32:26.974Z,10.30
2018-07-22T08:34:55.121Z,5.50
2018-07-22T08:37:23.254Z,8.23
2018-07-22T08:39:51.403Z,7.67
2018-07-22T08:42:19.554Z,5.50
2018-07-22T08:44:47.695Z,11.33
2018-07-22T08:47:15.825Z,6.70
2018-07-22T08:49:43.970Z,9.20
2018-07-22T08:52:12.102Z,7.80
2018-07-22T08:54:40.249Z,10.53
2018-07-22T08:57:08.390Z,7.23
2018-07-22T08:59:36.549Z,7.90
2018-07-22T09:02:04.743Z,6.93
2018-07-22T09:04:32.638Z,9.30
2018-07-22T09:07:00.765Z,7.10
2018-07-22T09:09:28.908Z,5.93
2018-07-22T09:11:57.023Z,7.07
2018-07-22T09:14:25.141Z,7.00
2018-07-22T09:16:53.263Z,9.43
2018-07-22T09:19:21.432Z,9.07
2018-07-22T09:21:49.550Z,5.67
2018-07-22T09:24:17.674Z,6.03
2018-07-22T09:26:45.790Z,7.70
2018-07-22T09:29:13.917Z,6.27
2018-07-22T09:31:42.034Z,6.43
2018-07-22T09:34:10.149Z,6.53
2018-07-22T09:36:38.315Z,10.03
2018-07-22T09:39:09.038Z,10.83
2018-07-22T09:41:37.179Z,9.00
2018-07-22T09:44:05.350Z,7.00
2018-07-22T09:46:33.458Z,8.33
2018-07-22T09:49:01.588Z,5.07
2018-07-22T09:51:29.865Z,5.80
2018-07-22T09:53:57.987Z,8.53
2018-07-22T09:56:26.096Z,5.93
2018-07-22T09:58:54.226Z,7.80
2018-07-22T10:01:22.343Z,6.03
2018-07-22T10:03:50.470Z,6.13
2018-07-22T10:06:18.581Z,5.40
2018-07-22T10:08:46.695Z,5.63
2018-07-22T10:11:14.847Z,6.20
2018-07-22T10:13:42.946Z,6.10
2018-07-22T10:16:11.069Z,8.30
2018-07-22T10:18:39.207Z,10.40
2018-07-22T10:21:07.312Z,6.37
2018-07-22T10:23:35.433Z,5.80
2018-07-22T10:26:03.549Z,7.17
2018-07-22T10:28:31.677Z,5.27
2018-07-22T10:30:59.818Z,6.80
2018-07-22T10:33:27.942Z,5.53
2018-07-22T10:35:56.160Z,7.40
2018-07-22T10:38:24.078Z,7.57
2018-07-22T10:40:52.257Z,5.40
2018-07-22T10:43:20.381Z,6.13
2018-07-22T10:45:48.522Z,6.63
2018-07-22T10:48:16.633Z,6.70
2018-07-22T10:50:44.771Z,10.40
2018-07-22T10:53:12.949Z,16.90
2018-07-22T10:55:41.022Z,6.10
2018-07-22T10:58:09.295Z,8.07
2018-07-22T11:00:37.429Z,33.47
2018-07-22T11:03:06.670Z,14.93
2018-07-22T11:05:34.813Z,18.33
2018-07-22T11:08:02.950Z,9.73
2018-07-22T11:10:31.101Z,9.90
2018-07-22T11:12:59.234Z,17.53
2018-07-22T11:15:27.370Z,9.73
2018-07-22T11:17:55.343Z,15.77
2018-07-22T11:20:23.551Z,8.40
2018-07-22T11:22:51.729Z,10.93
2018-07-22T11:25:19.874Z,7.67
2018-07-22T11:27:48.002Z,7.87
2018-07-22T11:30:16.145Z,13.37
2018-07-22T11:32:44.274Z,10.27
2018-07-22T11:35:12.422Z,17.40
2018-07-22T11:37:40.649Z,10.33
2018-07-22T11:40:08.805Z,11.97
2018-07-22T11:42:36.982Z,12.43
2018-07-22T11:45:05.172Z,14.37
2018-07-22T11:47:33.322Z,13.40
2018-07-22T11:50:01.475Z,8.70
2018-07-22T11:52:29.614Z,10.40
2018-07-22T11:54:57.745Z,8.63
2018-07-22T11:57:25.923Z,10.97
2018-07-22T11:59:54.042Z,9.40
2018-07-22T12:02:22.170Z,7.67
2018-07-22T12:04:50.295Z,7.30
2018-07-22T12:07:18.454Z,7.40
2018-07-22T12:09:46.537Z,11.10
2018-07-22T12:12:14.656Z,8.53
2018-07-22T12:14:42.790Z,7.37
2018-07-22T12:17:10.906Z,8.27
2018-07-22T12:19:39.039Z,7.60
2018-07-22T12:22:07.157Z,7.10
2018-07-22T12:24:35.274Z,7.60
2018-07-22T12:27:03.395Z,7.53
2018-07-22T12:29:31.514Z,6.70
2018-07-22T12:31:59.730Z,7.10
2018-07-22T12:34:27.947Z,6.47
2018-07-22T12:36:56.015Z,7.73
2018-07-22T12:39:24.177Z,7.67
2018-07-22T12:41:52.281Z,6.80
2018-07-22T12:44:20.630Z,7.40
2018-07-22T12:46:48.745Z,7.23
2018-07-22T12:49:16.865Z,7.30
2018-07-22T12:51:45.003Z,9.47
2018-07-22T12:54:13.122Z,7.50
2018-07-22T12:56:41.247Z,7.70
2018-07-22T12:59:09.362Z,6.77
2018-07-22T13:01:37.490Z,7.40
2018-07-22T13:04:05.913Z,8.60
2018-07-22T13:06:34.054Z,8.97
2018-07-22T13:09:02.209Z,7.87
2018-07-22T13:11:30.346Z,7.47
2018-07-22T13:13:58.482Z,11.37
2018-07-22T13:16:26.394Z,6.67
2018-07-22T13:18:54.539Z,11.17
2018-07-22T13:21:22.666Z,7.97
2018-07-22T13:23:50.796Z,6.97
2018-07-22T13:26:18.934Z,7.20
2018-07-22T13:28:47.111Z,7.20
2018-07-22T13:31:15.250Z,7.43
2018-07-22T13:33:43.378Z,8.67
2018-07-22T13:36:11.530Z,8.90
2018-07-22T13:38:39.653Z,6.00
2018-07-22T13:41:07.806Z,7.10
2018-07-22T13:43:35.938Z,9.80
2018-07-22T13:46:04.081Z,10.60
2018-07-22T13:48:32.228Z,10.83
2018-07-22T13:51:00.352Z,7.60
2018-07-22T13:53:28.486Z,9.50
2018-07-22T13:55:56.646Z,6.60
2018-07-22T13:58:24.783Z,11.70
2018-07-22T14:00:52.909Z,8.77
2018-07-22T14:03:21.078Z,7.17
2018-07-22T14:05:49.235Z,8.03
2018-07-22T14:08:17.452Z,7.13
2018-07-22T14:10:45.582Z,11.30
2018-07-22T14:13:13.723Z,8.93
2018-07-22T14:15:41.881Z,8.53
2018-07-22T14:18:10.175Z,8.07
2018-07-22T14:20:38.317Z,10.43
2018-07-22T14:23:06.497Z,8.47
2018-07-22T14:25:34.628Z,7.47
2018-07-22T14:28:02.818Z,7.77
2018-07-22T14:30:30.910Z,10.83
2018-07-22T14:32:59.046Z,8.90
2018-07-22T14:35:27.178Z,7.97
2018-07-22T14:37:55.366Z,7.97
2018-07-22T14:40:23.518Z,7.60
2018-07-22T14:42:51.678Z,7.23
2018-07-22T14:45:19.797Z,7.10
2018-07-22T14:47:47.947Z,6.97
2018-07-22T14:50:16.070Z,8.57
2018-07-22T14:52:44.205Z,9.40
2018-07-22T14:55:12.343Z,7.37
2018-07-22T14:57:40.309Z,7.37
2018-07-22T15:00:08.777Z,7.87
2018-07-22T15:02:36.941Z,7.67
2018-07-22T15:05:05.296Z,7.00
2018-07-22T15:07:33.505Z,11.50
2018-07-22T15:10:01.601Z,5.53
2018-07-22T15:12:29.727Z,8.60
2018-07-22T15:14:58.054Z,10.77
2018-07-22T15:17:26.167Z,7.70
2018-07-22T15:19:54.278Z,10.27
2018-07-22T15:22:22.394Z,8.57
2018-07-22T15:24:50.514Z,6.97
2018-07-22T15:27:18.646Z,8.00
2018-07-22T15:29:46.753Z,7.50
2018-07-22T15:32:14.862Z,7.87
2018-07-22T15:34:43.011Z,6.93
2018-07-22T15:37:11.112Z,7.33
2018-07-22T15:39:39.231Z,7.73
2018-07-22T15:42:07.338Z,7.80
2018-07-22T15:44:35.462Z,8.93
2018-07-22T15:47:03.586Z,8.23
2018-07-22T15:49:31.717Z,9.27
2018-07-22T15:51:59.818Z,8.40
2018-07-22T15:54:27.933Z,7.60
2018-07-22T15:56:56.161Z,6.60
2018-07-22T15:59:24.270Z,4.47
2018-07-22T16:01:52.449Z,4.70
2018-07-22T16:04:20.585Z,7.10
2018-07-22T16:06:48.717Z,5.80
2018-07-22T16:09:16.892Z,6.20
2018-07-22T16:11:45.039Z,8.33
2018-07-22T16:14:13.213Z,8.17
2018-07-22T16:16:41.312Z,8.67
2018-07-22T16:19:09.450Z,6.90
2018-07-22T16:21:37.617Z,7.23
2018-07-22T16:24:05.762Z,7.00
2018-07-22T16:26:33.969Z,10.93
2018-07-22T16:29:02.115Z,6.07
2018-07-22T16:31:30.253Z,8.80
2018-07-22T16:33:58.396Z,7.33
2018-07-22T16:36:26.566Z,7.27
2018-07-22T16:38:54.662Z,7.47
2018-07-22T16:41:22.866Z,7.83
2018-07-22T16:43:50.998Z,9.03
2018-07-22T16:46:19.365Z,7.40
2018-07-22T16:48:47.550Z,8.50
2018-07-22T16:51:15.675Z,7.40
2018-07-22T16:53:43.918Z,7.40
2018-07-22T16:56:12.118Z,7.83
2018-07-22T16:58:40.266Z,7.73
2018-07-22T17:01:08.412Z,8.87
2018-07-22T17:03:36.539Z,7.60
2018-07-22T17:06:04.673Z,7.37
2018-07-22T17:08:32.797Z,7.50
2018-07-22T17:11:00.897Z,8.53
2018-07-22T17:13:29.005Z,8.03
2018-07-22T17:15:57.133Z,7.57
2018-07-22T17:18:25.250Z,8.33
2018-07-22T17:20:53.375Z,8.27
2018-07-22T17:23:21.500Z,8.83
2018-07-22T17:25:49.674Z,8.60
2018-07-22T17:28:17.786Z,9.17
2018-07-22T17:30:45.946Z,10.23
2018-07-22T17:33:14.565Z,9.77
2018-07-22T17:35:42.688Z,5.80
2018-07-22T17:38:10.834Z,8.63
2018-07-22T17:40:39.064Z,10.37
2018-07-22T17:43:07.400Z,10.60
2018-07-22T17:45:35.564Z,10.53
2018-07-22T17:48:03.686Z,10.87
2018-07-22T17:50:31.802Z,9.23
2018-07-22T17:52:59.917Z,7.63
2018-07-22T17:55:28.132Z,7.60
2018-07-22T17:57:56.238Z,8.23
2018-07-22T18:00:24.365Z,8.00
2018-07-22T18:03:09.102Z,8.37
2018-07-22T18:05:37.382Z,8.37
2018-07-22T18:08:06.014Z,8.33
2018-07-22T18:10:34.159Z,8.23
2018-07-22T18:13:02.266Z,7.80
2018-07-22T18:15:30.426Z,6.90
2018-07-22T18:17:58.551Z,9.03
2018-07-22T18:20:26.658Z,8.70
2018-07-22T18:22:54.838Z,7.97
2018-07-22T18:25:22.902Z,7.87
2018-07-22T18:27:51.022Z,9.80
2018-07-22T18:30:19.162Z,8.83
2018-07-22T18:32:47.273Z,12.27
2018-07-22T18:35:15.406Z,12.60
2018-07-22T18:37:43.521Z,9.53
2018-07-22T18:40:11.637Z,7.50
2018-07-22T18:42:39.762Z,7.57
2018-07-22T18:45:07.882Z,8.40
2018-07-22T18:47:36.002Z,9.13
2018-07-22T18:50:04.154Z,9.23
2018-07-22T18:52:32.534Z,8.10
2018-07-22T18:55:00.756Z,7.57
2018-07-22T18:57:28.774Z,7.60
2018-07-22T18:59:57.177Z,9.00
2018-07-22T19:02:25.562Z,7.53
2018-07-22T19:04:53.685Z,8.00
2018-07-22T19:07:21.830Z,6.90
2018-07-22T19:09:49.958Z,8.93
2018-07-22T19:12:18.070Z,8.17
2018-07-22T19:14:46.203Z,8.37
2018-07-22T19:17:14.333Z,9.40
2018-07-22T19:19:42.717Z,9.53
2018-07-22T19:22:10.854Z,7.57
2018-07-22T19:24:38.990Z,7.50
2018-07-22T19:27:07.102Z,8.53
2018-07-22T19:29:35.210Z,8.87
2018-07-22T19:32:03.398Z,9.63
2018-07-22T19:34:31.509Z,8.93
2018-07-22T19:36:59.628Z,12.87
2018-07-22T19:39:27.858Z,9.30
2018-07-22T19:41:55.993Z,10.20
2018-07-22T19:44:24.125Z,8.83
2018-07-22T19:46:52.254Z,8.63
2018-07-22T19:49:20.428Z,9.90
2018-07-22T19:51:48.573Z,10.80
2018-07-22T19:54:16.689Z,13.37
2018-07-22T19:56:44.843Z,9.80
2018-07-22T19:59:12.950Z,11.87
2018-07-22T20:01:42.246Z,10.60
2018-07-22T20:04:12.975Z,10.60
2018-07-22T20:06:41.877Z,8.47
2018-07-22T20:09:11.574Z,9.90
2018-07-22T20:11:40.067Z,6.40
2018-07-22T20:14:08.189Z,6.90
2018-07-22T20:16:36.330Z,7.00
2018-07-22T20:19:04.473Z,6.13
2018-07-22T20:21:32.799Z,6.30
2018-07-22T20:24:01.221Z,5.80
2018-07-22T20:26:29.314Z,5.93
2018-07-22T20:28:57.430Z,6.47
2018-07-22T20:31:25.581Z,5.10
2018-07-22T20:33:53.719Z,5.47
2018-07-22T20:36:21.841Z,8.17
2018-07-22T20:38:49.946Z,5.23
2018-07-22T20:41:18.139Z,7.63
2018-07-22T20:43:46.258Z,8.37
2018-07-22T20:46:14.378Z,5.47
2018-07-22T20:48:42.515Z,7.37
2018-07-22T20:51:10.672Z,8.50
2018-07-22T20:53:38.754Z,7.30
2018-07-22T20:56:06.873Z,10.70
2018-07-22T20:58:34.994Z,10.23
2018-07-22T21:01:03.199Z,10.20
2018-07-22T21:03:31.333Z,9.80
2018-07-22T21:05:59.493Z,12.30
2018-07-22T21:08:27.631Z,10.90
2018-07-22T21:10:55.747Z,13.03
2018-07-22T21:13:25.238Z,12.70
2018-07-22T21:15:53.371Z,11.00
2018-07-22T21:18:21.506Z,14.30
2018-07-22T21:20:49.617Z,10.50
2018-07-22T21:23:17.738Z,9.50
2018-07-22T21:25:45.853Z,10.17
2018-07-22T21:28:13.982Z,11.50
2018-07-22T21:30:42.103Z,10.10
2018-07-22T21:33:10.226Z,10.77
2018-07-22T21:35:38.351Z,14.20
2018-07-22T21:38:06.461Z,11.47
2018-07-22T21:40:34.578Z,9.53
2018-07-22T21:43:02.710Z,10.37
2018-07-22T21:45:30.817Z,13.93
2018-07-22T21:47:58.974Z,11.23
2018-07-22T21:50:27.118Z,13.73
2018-07-22T21:52:55.238Z,9.93
2018-07-22T21:55:23.370Z,11.63
2018-07-22T21:57:51.498Z,12.90
2018-07-22T22:00:23.346Z,11.63
2018-07-22T22:02:51.510Z,10.00
2018-07-22T22:05:19.740Z,10.03
2018-07-22T22:07:47.893Z,10.23
2018-07-22T22:10:16.023Z,10.60
2018-07-22T22:12:44.173Z,10.53
2018-07-22T22:15:17.814Z,12.33
2018-07-22T22:17:45.977Z,14.00
2018-07-22T22:20:14.124Z,10.50
2018-07-22T22:22:42.278Z,11.93
2018-07-22T22:25:10.418Z,11.03
2018-07-22T22:27:38.578Z,10.20
2018-07-22T22:30:06.950Z,11.87
2018-07-22T22:32:35.091Z,14.93
2018-07-22T22:35:03.227Z,9.33
2018-07-22T22:37:31.386Z,10.93
2018-07-22T22:39:59.538Z,13.40
2018-07-22T22:42:27.702Z,11.63
2018-07-22T22:44:55.847Z,12.20
2018-07-22T22:47:24.000Z,12.77
2018-07-22T22:49:52.167Z,10.47
2018-07-22T22:52:20.346Z,10.33
2018-07-22T22:54:48.501Z,10.50
2018-07-22T22:57:16.666Z,11.47
2018-07-22T22:59:44.814Z,10.73
2018-07-22T23:02:13.001Z,9.33
2018-07-22T23:04:41.149Z,10.47
2018-07-22T23:07:09.286Z,9.80
2018-07-22T23:09:37.430Z,10.20
2018-07-22T23:12:05.582Z,10.23
2018-07-22T23:14:33.767Z,10.80
2018-07-22T23:17:01.903Z,10.27
2018-07-22T23:19:30.122Z,11.73
2018-07-22T23:21:58.266Z,11.73
2018-07-22T23:24:26.416Z,9.00
2018-07-22T23:26:55.363Z,11.17
2018-07-22T23:29:23.526Z,10.53
2018-07-22T23:31:51.673Z,12.00
2018-07-22T23:34:19.859Z,11.10
2018-07-22T23:36:48.009Z,11.40
2018-07-22T23:39:16.225Z,10.80
2018-07-22T23:41:44.370Z,8.93
2018-07-22T23:44:12.526Z,10.53
2018-07-22T23:46:40.663Z,11.60
2018-07-22T23:49:08.810Z,9.60
2018-07-22T23:51:36.957Z,10.27
2018-07-22T23:54:05.122Z,11.90
2018-07-22T23:56:33.309Z,12.67
2018-07-22T23:59:01.470Z,12.27
